Main page
METAR-TAF:

METAR-TAF

Airports :

Edinburgh, Scotland

Edinburgh Airport

latitude: 55-57N, longitude: 003-21W, elevation: 41 m

Current weather observation

The report was made 30 minutes ago, at 15:50 UTC
Wind 7 kt from the Northeast
Temperature 16°C
Humidity 77%
Pressure 1022 hPa
Visibility 10 km or more
Few clouds at a height of 3200 ft

METAR: EGPH 261550Z 04007KT 9999 FEW032 16/12 Q1022

Time: 17:20 (16:20 UTC)

Forecast

The report was made 5 hours and 19 minutes ago, at 11:01 UTC
Forecast valid from 26 at 12 UTC to 27 at 12 UTC
Wind 7 kt from the East
Visibility: 8000 m
Scattered clouds at a height of 2500 ft
Becoming
from 26 at 12 UTC to 26 at 14 UTC
Visibility 10 km or more
Probability 40% :
Temporary
from 26 at 19 UTC to 27 at 09 UTC
Visibility: 6000 m

TAF: EGPH 261101Z 2612/2712 09007KT 8000 SCT025 BECMG 2612/2614 9999 PROB40 TEMPO 2619/2709 6000

Weather observations and forecasts of more than 4000 airports (METAR and TAF reports).

The available stations are represented by yellow and red dots on the map.

Hover mouse over dot to see the name of the station.

Then click to see weather observations and forecasts.

To change the map : click on the green buttons with a black cross to zoom in, on the green button with a dash to zoom out, or on the green arrows for adjacent maps.


METAR-TAF: